sensor_id;sensor_type;location;lat;lon;timestamp;temperature;humidity
78479;SHT31;67769;51.972;5.668;2023-04-24T00:00:37;13.2;69.3
78479;SHT31;67769;51.972;5.668;2023-04-24T00:03:08;13.2;69.1
78479;SHT31;67769;51.972;5.668;2023-04-24T00:05:38;13.2;68.8
78479;SHT31;67769;51.972;5.668;2023-04-24T00:08:09;13.2;69.0
78479;SHT31;67769;51.972;5.668;2023-04-24T00:10:39;13.2;69.2
78479;SHT31;67769;51.972;5.668;2023-04-24T00:13:09;13.2;69.5
78479;SHT31;67769;51.972;5.668;2023-04-24T00:15:38;13.2;69.0
78479;SHT31;67769;51.972;5.668;2023-04-24T00:18:08;13.2;68.9
78479;SHT31;67769;51.972;5.668;2023-04-24T00:20:40;13.2;68.9
78479;SHT31;67769;51.972;5.668;2023-04-24T00:23:11;13.2;69.3
78479;SHT31;67769;51.972;5.668;2023-04-24T00:25:40;13.2;69.2
78479;SHT31;67769;51.972;5.668;2023-04-24T00:28:10;13.2;68.9
78479;SHT31;67769;51.972;5.668;2023-04-24T00:30:40;13.2;68.9
78479;SHT31;67769;51.972;5.668;2023-04-24T00:33:11;13.2;68.8
78479;SHT31;67769;51.972;5.668;2023-04-24T00:35:42;13.2;68.7
78479;SHT31;67769;51.972;5.668;2023-04-24T00:38:11;13.2;68.4
78479;SHT31;67769;51.972;5.668;2023-04-24T00:40:41;13.2;68.7
78479;SHT31;67769;51.972;5.668;2023-04-24T00:43:11;13.2;68.9
78479;SHT31;67769;51.972;5.668;2023-04-24T00:45:41;13.2;69.3
78479;SHT31;67769;51.972;5.668;2023-04-24T00:48:11;13.2;69.2
78479;SHT31;67769;51.972;5.668;2023-04-24T00:50:42;13.2;69.3
78479;SHT31;67769;51.972;5.668;2023-04-24T00:53:12;13.2;69.7
78479;SHT31;67769;51.972;5.668;2023-04-24T00:55:42;13.2;69.8
78479;SHT31;67769;51.972;5.668;2023-04-24T00:58:12;13.2;70.0
78479;SHT31;67769;51.972;5.668;2023-04-24T01:00:42;13.2;70.4
78479;SHT31;67769;51.972;5.668;2023-04-24T01:03:13;13.2;70.7
78479;SHT31;67769;51.972;5.668;2023-04-24T01:05:44;13.2;70.3
78479;SHT31;67769;51.972;5.668;2023-04-24T01:08:14;13.2;69.5
78479;SHT31;67769;51.972;5.668;2023-04-24T01:10:44;13.2;68.1
78479;SHT31;67769;51.972;5.668;2023-04-24T01:13:14;13.2;67.7
78479;SHT31;67769;51.972;5.668;2023-04-24T01:15:46;13.2;68.2
78479;SHT31;67769;51.972;5.668;2023-04-24T01:18:16;13.1;68.8
78479;SHT31;67769;51.972;5.668;2023-04-24T01:20:45;13.1;69.0
78479;SHT31;67769;51.972;5.668;2023-04-24T01:23:16;13.1;68.9
78479;SHT31;67769;51.972;5.668;2023-04-24T01:25:48;13.1;68.9
78479;SHT31;67769;51.972;5.668;2023-04-24T01:28:18;13.1;69.0
78479;SHT31;67769;51.972;5.668;2023-04-24T01:30:48;13.1;68.9
78479;SHT31;67769;51.972;5.668;2023-04-24T01:33:18;13.1;69.3
78479;SHT31;67769;51.972;5.668;2023-04-24T01:35:50;13.1;69.7
78479;SHT31;67769;51.972;5.668;2023-04-24T01:38:20;13.1;69.6
78479;SHT31;67769;51.972;5.668;2023-04-24T01:40:51;13.0;69.6
78479;SHT31;67769;51.972;5.668;2023-04-24T01:43:21;13.0;69.5
78479;SHT31;67769;51.972;5.668;2023-04-24T01:45:50;13.0;69.5
78479;SHT31;67769;51.972;5.668;2023-04-24T01:48:20;13.0;70.2
78479;SHT31;67769;51.972;5.668;2023-04-24T01:50:50;13.0;70.2
78479;SHT31;67769;51.972;5.668;2023-04-24T01:53:20;13.0;70.2
78479;SHT31;67769;51.972;5.668;2023-04-24T01:55:51;13.0;70.1
78479;SHT31;67769;51.972;5.668;2023-04-24T01:58:21;13.0;70.3
78479;SHT31;67769;51.972;5.668;2023-04-24T02:00:54;13.1;70.7
78479;SHT31;67769;51.972;5.668;2023-04-24T02:03:27;13.1;70.4
78479;SHT31;67769;51.972;5.668;2023-04-24T02:05:56;13.1;70.9
78479;SHT31;67769;51.972;5.668;2023-04-24T02:08:26;13.2;70.5
78479;SHT31;67769;51.972;5.668;2023-04-24T02:10:55;13.2;70.1
78479;SHT31;67769;51.972;5.668;2023-04-24T02:13:25;13.3;70.0
78479;SHT31;67769;51.972;5.668;2023-04-24T02:15:55;13.3;69.8
78479;SHT31;67769;51.972;5.668;2023-04-24T02:18:25;13.3;70.1
78479;SHT31;67769;51.972;5.668;2023-04-24T02:20:55;13.3;70.0
78479;SHT31;67769;51.972;5.668;2023-04-24T02:23:25;13.3;70.3
78479;SHT31;67769;51.972;5.668;2023-04-24T02:25:54;13.3;70.4
78479;SHT31;67769;51.972;5.668;2023-04-24T02:28:26;13.3;70.6
78479;SHT31;67769;51.972;5.668;2023-04-24T02:30:56;13.3;70.3
78479;SHT31;67769;51.972;5.668;2023-04-24T02:33:26;13.3;70.8
78479;SHT31;67769;51.972;5.668;2023-04-24T02:35:55;13.3;70.7
78479;SHT31;67769;51.972;5.668;2023-04-24T02:38:27;13.3;70.9
78479;SHT31;67769;51.972;5.668;2023-04-24T02:40:56;13.3;71.6
78479;SHT31;67769;51.972;5.668;2023-04-24T02:43:26;13.3;70.7
78479;SHT31;67769;51.972;5.668;2023-04-24T02:45:55;13.3;70.7
78479;SHT31;67769;51.972;5.668;2023-04-24T02:48:25;13.3;70.1
78479;SHT31;67769;51.972;5.668;2023-04-24T02:50:55;13.3;70.2
78479;SHT31;67769;51.972;5.668;2023-04-24T02:53:25;13.3;70.0
78479;SHT31;67769;51.972;5.668;2023-04-24T02:55:54;13.2;69.8
78479;SHT31;67769;51.972;5.668;2023-04-24T02:58:24;13.2;69.5
78479;SHT31;67769;51.972;5.668;2023-04-24T03:00:55;13.2;69.1
78479;SHT31;67769;51.972;5.668;2023-04-24T03:03:24;13.2;69.1
78479;SHT31;67769;51.972;5.668;2023-04-24T03:05:54;13.2;69.4
78479;SHT31;67769;51.972;5.668;2023-04-24T03:08:24;13.2;69.9
78479;SHT31;67769;51.972;5.668;2023-04-24T03:10:54;13.2;69.7
78479;SHT31;67769;51.972;5.668;2023-04-24T03:13:25;13.2;69.7
78479;SHT31;67769;51.972;5.668;2023-04-24T03:15:55;13.2;70.0
78479;SHT31;67769;51.972;5.668;2023-04-24T03:18:24;13.2;70.5
78479;SHT31;67769;51.972;5.668;2023-04-24T03:20:54;13.2;70.7
78479;SHT31;67769;51.972;5.668;2023-04-24T03:23:24;13.2;70.9
78479;SHT31;67769;51.972;5.668;2023-04-24T03:25:53;13.2;70.8
78479;SHT31;67769;51.972;5.668;2023-04-24T03:28:24;13.2;70.2
78479;SHT31;67769;51.972;5.668;2023-04-24T03:30:53;13.2;70.1
78479;SHT31;67769;51.972;5.668;2023-04-24T03:33:23;13.1;69.6
78479;SHT31;67769;51.972;5.668;2023-04-24T03:35:53;13.1;69.4
78479;SHT31;67769;51.972;5.668;2023-04-24T03:38:22;13.1;69.6
78479;SHT31;67769;51.972;5.668;2023-04-24T03:40:52;13.1;69.9
78479;SHT31;67769;51.972;5.668;2023-04-24T03:43:22;13.1;69.9
78479;SHT31;67769;51.972;5.668;2023-04-24T03:45:52;13.1;69.9
78479;SHT31;67769;51.972;5.668;2023-04-24T03:48:22;13.1;69.7
78479;SHT31;67769;51.972;5.668;2023-04-24T03:50:52;13.1;70.1
78479;SHT31;67769;51.972;5.668;2023-04-24T03:53:22;13.1;69.8
78479;SHT31;67769;51.972;5.668;2023-04-24T03:55:51;13.1;69.8
78479;SHT31;67769;51.972;5.668;2023-04-24T03:58:22;13.1;69.5
78479;SHT31;67769;51.972;5.668;2023-04-24T04:00:52;13.0;69.4
78479;SHT31;67769;51.972;5.668;2023-04-24T04:03:22;13.0;69.3
78479;SHT31;67769;51.972;5.668;2023-04-24T04:05:52;13.0;69.4
78479;SHT31;67769;51.972;5.668;2023-04-24T04:08:22;13.0;69.0
78479;SHT31;67769;51.972;5.668;2023-04-24T04:10:52;12.9;69.0
78479;SHT31;67769;51.972;5.668;2023-04-24T04:13:23;12.9;69.0
78479;SHT31;67769;51.972;5.668;2023-04-24T04:15:52;12.9;68.6
78479;SHT31;67769;51.972;5.668;2023-04-24T04:18:22;12.8;68.4
78479;SHT31;67769;51.972;5.668;2023-04-24T04:20:52;12.8;68.8
78479;SHT31;67769;51.972;5.668;2023-04-24T04:23:21;12.8;69.4
78479;SHT31;67769;51.972;5.668;2023-04-24T04:25:51;12.7;68.9
78479;SHT31;67769;51.972;5.668;2023-04-24T04:28:22;12.7;69.1
78479;SHT31;67769;51.972;5.668;2023-04-24T04:30:52;12.7;69.3
78479;SHT31;67769;51.972;5.668;2023-04-24T04:33:23;12.7;69.2
78479;SHT31;67769;51.972;5.668;2023-04-24T04:35:53;12.6;69.3
78479;SHT31;67769;51.972;5.668;2023-04-24T04:38:24;12.6;69.2
78479;SHT31;67769;51.972;5.668;2023-04-24T04:40:54;12.6;69.4
78479;SHT31;67769;51.972;5.668;2023-04-24T04:43:24;12.6;70.0
78479;SHT31;67769;51.972;5.668;2023-04-24T04:45:54;12.6;70.5
78479;SHT31;67769;51.972;5.668;2023-04-24T04:48:24;12.6;70.4
78479;SHT31;67769;51.972;5.668;2023-04-24T04:50:54;12.5;70.9
78479;SHT31;67769;51.972;5.668;2023-04-24T04:53:24;12.5;71.0
78479;SHT31;67769;51.972;5.668;2023-04-24T04:55:54;12.5;71.1
78479;SHT31;67769;51.972;5.668;2023-04-24T04:58:24;12.6;70.9
78479;SHT31;67769;51.972;5.668;2023-04-24T05:00:53;12.6;70.9
78479;SHT31;67769;51.972;5.668;2023-04-24T05:03:24;12.6;70.0
78479;SHT31;67769;51.972;5.668;2023-04-24T05:05:56;12.6;70.1
78479;SHT31;67769;51.972;5.668;2023-04-24T05:08:27;12.6;70.2
78479;SHT31;67769;51.972;5.668;2023-04-24T05:10:59;12.7;69.7
78479;SHT31;67769;51.972;5.668;2023-04-24T05:13:29;12.7;70.1
78479;SHT31;67769;51.972;5.668;2023-04-24T05:15:59;12.7;69.8
78479;SHT31;67769;51.972;5.668;2023-04-24T05:18:28;12.7;69.8
78479;SHT31;67769;51.972;5.668;2023-04-24T05:20:58;12.8;69.9
78479;SHT31;67769;51.972;5.668;2023-04-24T05:23:28;12.8;69.5
78479;SHT31;67769;51.972;5.668;2023-04-24T05:25:58;12.8;68.7
78479;SHT31;67769;51.972;5.668;2023-04-24T05:28:28;12.9;69.0
78479;SHT31;67769;51.972;5.668;2023-04-24T05:30:58;12.9;69.0
78479;SHT31;67769;51.972;5.668;2023-04-24T05:33:28;12.9;69.2
78479;SHT31;67769;51.972;5.668;2023-04-24T05:35:58;12.9;69.4
78479;SHT31;67769;51.972;5.668;2023-04-24T05:38:28;13.0;69.7
78479;SHT31;67769;51.972;5.668;2023-04-24T05:40:57;13.0;69.5
78479;SHT31;67769;51.972;5.668;2023-04-24T05:43:27;13.1;69.8
78479;SHT31;67769;51.972;5.668;2023-04-24T05:45:57;13.1;69.5
78479;SHT31;67769;51.972;5.668;2023-04-24T05:48:29;13.1;69.3
78479;SHT31;67769;51.972;5.668;2023-04-24T05:51:01;13.2;69.1
78479;SHT31;67769;51.972;5.668;2023-04-24T05:53:30;13.2;68.9
78479;SHT31;67769;51.972;5.668;2023-04-24T05:56:00;13.2;68.7
78479;SHT31;67769;51.972;5.668;2023-04-24T05:58:30;13.2;69.0
78479;SHT31;67769;51.972;5.668;2023-04-24T06:00:59;13.3;68.9
78479;SHT31;67769;51.972;5.668;2023-04-24T06:03:31;13.3;69.1
78479;SHT31;67769;51.972;5.668;2023-04-24T06:06:01;13.3;69.1
78479;SHT31;67769;51.972;5.668;2023-04-24T06:08:31;13.3;68.7
78479;SHT31;67769;51.972;5.668;2023-04-24T06:11:01;13.4;69.2
78479;SHT31;67769;51.972;5.668;2023-04-24T06:13:31;13.4;69.7
78479;SHT31;67769;51.972;5.668;2023-04-24T06:16:00;13.4;69.2
78479;SHT31;67769;51.972;5.668;2023-04-24T06:18:31;13.4;69.7
78479;SHT31;67769;51.972;5.668;2023-04-24T06:21:01;13.5;69.4
78479;SHT31;67769;51.972;5.668;2023-04-24T06:23:30;13.5;70.2
78479;SHT31;67769;51.972;5.668;2023-04-24T06:26:01;13.5;69.7
78479;SHT31;67769;51.972;5.668;2023-04-24T06:28:30;13.6;69.8
78479;SHT31;67769;51.972;5.668;2023-04-24T06:31:02;13.6;69.1
78479;SHT31;67769;51.972;5.668;2023-04-24T06:33:32;13.6;69.2
78479;SHT31;67769;51.972;5.668;2023-04-24T06:36:01;13.7;69.7
78479;SHT31;67769;51.972;5.668;2023-04-24T06:38:32;13.7;69.4
78479;SHT31;67769;51.972;5.668;2023-04-24T06:41:02;13.7;68.4
78479;SHT31;67769;51.972;5.668;2023-04-24T06:43:33;13.7;68.6
78479;SHT31;67769;51.972;5.668;2023-04-24T06:46:02;13.7;68.5
78479;SHT31;67769;51.972;5.668;2023-04-24T06:48:32;13.8;68.5
78479;SHT31;67769;51.972;5.668;2023-04-24T06:51:01;13.8;68.9
78479;SHT31;67769;51.972;5.668;2023-04-24T06:53:31;13.8;68.1
78479;SHT31;67769;51.972;5.668;2023-04-24T06:56:01;13.8;66.9
78479;SHT31;67769;51.972;5.668;2023-04-24T06:58:34;13.8;66.4
78479;SHT31;67769;51.972;5.668;2023-04-24T07:01:04;13.8;68.3
78479;SHT31;67769;51.972;5.668;2023-04-24T07:03:33;13.8;66.7
78479;SHT31;67769;51.972;5.668;2023-04-24T07:06:05;13.7;68.6
78479;SHT31;67769;51.972;5.668;2023-04-24T07:08:37;13.7;68.6
78479;SHT31;67769;51.972;5.668;2023-04-24T07:11:06;13.7;67.1
78479;SHT31;67769;51.972;5.668;2023-04-24T07:13:38;13.7;68.8
78479;SHT31;67769;51.972;5.668;2023-04-24T07:16:09;13.7;68.5
78479;SHT31;67769;51.972;5.668;2023-04-24T07:18:39;13.7;67.3
78479;SHT31;67769;51.972;5.668;2023-04-24T07:21:09;13.7;67.7
78479;SHT31;67769;51.972;5.668;2023-04-24T07:23:38;13.7;66.5
78479;SHT31;67769;51.972;5.668;2023-04-24T07:26:08;13.7;67.6
78479;SHT31;67769;51.972;5.668;2023-04-24T07:28:38;13.7;67.6
78479;SHT31;67769;51.972;5.668;2023-04-24T07:31:08;13.6;66.4
78479;SHT31;67769;51.972;5.668;2023-04-24T07:33:37;13.6;67.7
78479;SHT31;67769;51.972;5.668;2023-04-24T07:36:09;13.6;66.6
78479;SHT31;67769;51.972;5.668;2023-04-24T07:38:43;13.6;66.0
78479;SHT31;67769;51.972;5.668;2023-04-24T07:41:13;13.6;66.8
78479;SHT31;67769;51.972;5.668;2023-04-24T07:43:46;13.6;67.7
78479;SHT31;67769;51.972;5.668;2023-04-24T07:46:18;13.5;66.1
78479;SHT31;67769;51.972;5.668;2023-04-24T07:48:48;13.5;67.7
78479;SHT31;67769;51.972;5.668;2023-04-24T07:51:17;13.6;66.7
78479;SHT31;67769;51.972;5.668;2023-04-24T07:53:47;13.6;67.7
78479;SHT31;67769;51.972;5.668;2023-04-24T07:56:17;13.6;67.0
78479;SHT31;67769;51.972;5.668;2023-04-24T07:58:47;13.6;65.9
78479;SHT31;67769;51.972;5.668;2023-04-24T08:01:16;13.6;65.8
78479;SHT31;67769;51.972;5.668;2023-04-24T08:03:46;13.6;66.3
78479;SHT31;67769;51.972;5.668;2023-04-24T08:06:15;13.5;67.0
78479;SHT31;67769;51.972;5.668;2023-04-24T08:08:45;13.5;66.0
78479;SHT31;67769;51.972;5.668;2023-04-24T08:11:14;13.5;65.7
78479;SHT31;67769;51.972;5.668;2023-04-24T08:13:44;13.5;65.5
78479;SHT31;67769;51.972;5.668;2023-04-24T08:16:13;13.4;66.0
78479;SHT31;67769;51.972;5.668;2023-04-24T08:18:43;13.4;66.3
78479;SHT31;67769;51.972;5.668;2023-04-24T08:21:12;13.4;66.3
78479;SHT31;67769;51.972;5.668;2023-04-24T08:23:45;13.4;65.8
78479;SHT31;67769;51.972;5.668;2023-04-24T08:26:14;13.3;66.4
78479;SHT31;67769;51.972;5.668;2023-04-24T08:28:44;13.3;66.3
78479;SHT31;67769;51.972;5.668;2023-04-24T08:31:14;13.3;66.7
78479;SHT31;67769;51.972;5.668;2023-04-24T08:33:43;13.3;66.5
78479;SHT31;67769;51.972;5.668;2023-04-24T08:36:15;13.2;66.9
78479;SHT31;67769;51.972;5.668;2023-04-24T08:38:44;13.2;66.7
78479;SHT31;67769;51.972;5.668;2023-04-24T08:41:15;13.2;67.0
78479;SHT31;67769;51.972;5.668;2023-04-24T08:43:45;13.2;67.3
78479;SHT31;67769;51.972;5.668;2023-04-24T08:46:16;13.2;66.7
78479;SHT31;67769;51.972;5.668;2023-04-24T08:48:46;13.2;67.4
78479;SHT31;67769;51.972;5.668;2023-04-24T08:51:18;13.2;66.3
78479;SHT31;67769;51.972;5.668;2023-04-24T08:53:52;13.2;67.8
78479;SHT31;67769;51.972;5.668;2023-04-24T08:56:23;13.2;67.0
78479;SHT31;67769;51.972;5.668;2023-04-24T08:58:54;13.2;66.9
78479;SHT31;67769;51.972;5.668;2023-04-24T09:01:25;13.1;66.7
78479;SHT31;67769;51.972;5.668;2023-04-24T09:03:56;13.1;67.3
78479;SHT31;67769;51.972;5.668;2023-04-24T09:06:27;13.1;66.9
78479;SHT31;67769;51.972;5.668;2023-04-24T09:09:00;13.1;68.4
78479;SHT31;67769;51.972;5.668;2023-04-24T09:11:32;13.2;66.7
78479;SHT31;67769;51.972;5.668;2023-04-24T09:14:02;13.2;65.7
78479;SHT31;67769;51.972;5.668;2023-04-24T09:16:33;13.2;65.5
78479;SHT31;67769;51.972;5.668;2023-04-24T09:19:03;13.2;65.2
78479;SHT31;67769;51.972;5.668;2023-04-24T09:21:35;13.2;65.0
78479;SHT31;67769;51.972;5.668;2023-04-24T09:24:06;13.2;66.8
78479;SHT31;67769;51.972;5.668;2023-04-24T09:26:36;13.2;65.3
78479;SHT31;67769;51.972;5.668;2023-04-24T09:29:06;13.2;64.7
78479;SHT31;67769;51.972;5.668;2023-04-24T09:31:35;13.2;65.0
78479;SHT31;67769;51.972;5.668;2023-04-24T09:34:05;13.3;65.3
78479;SHT31;67769;51.972;5.668;2023-04-24T09:36:37;13.3;63.4
78479;SHT31;67769;51.972;5.668;2023-04-24T09:39:10;13.3;65.4
78479;SHT31;67769;51.972;5.668;2023-04-24T09:41:46;13.3;64.6
78479;SHT31;67769;51.972;5.668;2023-04-24T09:44:18;13.4;65.1
78479;SHT31;67769;51.972;5.668;2023-04-24T09:46:52;13.4;64.5
78479;SHT31;67769;51.972;5.668;2023-04-24T09:49:25;13.4;63.1
78479;SHT31;67769;51.972;5.668;2023-04-24T09:52:05;13.5;62.4
78479;SHT31;67769;51.972;5.668;2023-04-24T09:54:36;13.5;63.1
78479;SHT31;67769;51.972;5.668;2023-04-24T09:57:07;13.5;62.5
78479;SHT31;67769;51.972;5.668;2023-04-24T09:59:42;13.6;62.8
78479;SHT31;67769;51.972;5.668;2023-04-24T10:02:19;13.6;61.2
78479;SHT31;67769;51.972;5.668;2023-04-24T10:04:56;13.6;62.0
78479;SHT31;67769;51.972;5.668;2023-04-24T10:07:27;13.7;62.9
78479;SHT31;67769;51.972;5.668;2023-04-24T10:09:57;13.7;62.4
78479;SHT31;67769;51.972;5.668;2023-04-24T10:12:29;13.8;61.6
78479;SHT31;67769;51.972;5.668;2023-04-24T10:15:00;13.9;63.0
78479;SHT31;67769;51.972;5.668;2023-04-24T10:17:31;13.9;63.2
78479;SHT31;67769;51.972;5.668;2023-04-24T10:20:02;14.1;63.9
78479;SHT31;67769;51.972;5.668;2023-04-24T10:22:34;14.2;60.5
78479;SHT31;67769;51.972;5.668;2023-04-24T10:25:06;14.3;59.7
78479;SHT31;67769;51.972;5.668;2023-04-24T10:40:35;15.1;52.9
78479;SHT31;67769;51.972;5.668;2023-04-24T10:43:07;15.0;55.4
78479;SHT31;67769;51.972;5.668;2023-04-24T10:45:39;15.1;54.9
78479;SHT31;67769;51.972;5.668;2023-04-24T11:03:50;14.9;54.7
78479;SHT31;67769;51.972;5.668;2023-04-24T11:06:30;14.8;55.7
78479;SHT31;67769;51.972;5.668;2023-04-24T11:09:07;14.9;55.0
78479;SHT31;67769;51.972;5.668;2023-04-24T11:11:46;14.9;55.4
78479;SHT31;67769;51.972;5.668;2023-04-24T11:14:16;14.9;53.4
78479;SHT31;67769;51.972;5.668;2023-04-24T11:16:54;14.9;54.8
78479;SHT31;67769;51.972;5.668;2023-04-24T11:19:25;14.9;54.5
78479;SHT31;67769;51.972;5.668;2023-04-24T11:21:58;14.8;53.9
78479;SHT31;67769;51.972;5.668;2023-04-24T11:24:30;14.8;54.7
78479;SHT31;67769;51.972;5.668;2023-04-24T11:27:06;14.7;55.3
78479;SHT31;67769;51.972;5.668;2023-04-24T11:29:44;14.7;55.5
78479;SHT31;67769;51.972;5.668;2023-04-24T11:32:25;14.7;56.6
78479;SHT31;67769;51.972;5.668;2023-04-24T11:34:58;14.7;56.2
78479;SHT31;67769;51.972;5.668;2023-04-24T11:37:33;14.8;58.6
78479;SHT31;67769;51.972;5.668;2023-04-24T11:40:05;14.8;55.1
78479;SHT31;67769;51.972;5.668;2023-04-24T11:42:37;14.9;54.8
78479;SHT31;67769;51.972;5.668;2023-04-24T11:45:11;15.0;53.6
78479;SHT31;67769;51.972;5.668;2023-04-24T11:47:42;15.0;54.2
78479;SHT31;67769;51.972;5.668;2023-04-24T11:50:15;15.0;54.2
78479;SHT31;67769;51.972;5.668;2023-04-24T11:52:46;15.0;54.1
78479;SHT31;67769;51.972;5.668;2023-04-24T11:55:27;15.0;54.7
78479;SHT31;67769;51.972;5.668;2023-04-24T11:57:59;15.0;54.6
78479;SHT31;67769;51.972;5.668;2023-04-24T12:00:31;15.0;55.8
78479;SHT31;67769;51.972;5.668;2023-04-24T12:03:08;14.9;56.2
78479;SHT31;67769;51.972;5.668;2023-04-24T12:05:39;14.9;56.9
78479;SHT31;67769;51.972;5.668;2023-04-24T12:08:11;14.9;55.4
